createdAt,value
2022-10-31T00:02:25.893Z,4.60
2022-10-31T00:04:52.594Z,4.58
2022-10-31T00:07:19.107Z,4.66
2022-10-31T00:09:45.645Z,4.84
2022-10-31T00:12:12.213Z,5.12
2022-10-31T00:14:38.720Z,5.04
2022-10-31T00:17:05.277Z,5.09
2022-10-31T00:19:31.918Z,4.90
2022-10-31T00:21:58.576Z,5.00
2022-10-31T00:24:25.143Z,5.35
2022-10-31T00:26:51.728Z,5.31
2022-10-31T00:29:18.238Z,5.21
2022-10-31T00:31:44.765Z,5.27
2022-10-31T00:34:11.317Z,5.19
2022-10-31T00:36:37.850Z,5.26
2022-10-31T00:39:04.443Z,5.08
2022-10-31T00:41:31.136Z,5.11
2022-10-31T00:43:57.732Z,5.38
2022-10-31T00:46:24.334Z,5.33
2022-10-31T00:48:51.038Z,5.36
2022-10-31T00:51:17.545Z,5.42
2022-10-31T00:53:44.166Z,5.23
2022-10-31T00:56:10.827Z,5.30
2022-10-31T00:58:37.342Z,5.03
2022-10-31T01:01:04.792Z,5.16
2022-10-31T01:03:32.875Z,5.13
2022-10-31T01:06:04.339Z,5.25
2022-10-31T01:08:30.918Z,5.05
2022-10-31T01:11:16.844Z,5.29
2022-10-31T01:13:43.794Z,4.85
2022-10-31T01:16:12.475Z,5.16
2022-10-31T01:18:39.108Z,5.19
2022-10-31T01:21:10.151Z,5.42
2022-10-31T01:23:36.894Z,5.26
2022-10-31T01:26:06.098Z,5.20
2022-10-31T01:28:33.026Z,5.37
2022-10-31T01:31:07.251Z,5.42
2022-10-31T01:33:34.467Z,5.55
2022-10-31T01:36:01.358Z,5.68
2022-10-31T01:38:28.025Z,6.03
2022-10-31T01:40:54.515Z,6.15
2022-10-31T01:45:52.590Z,5.95
2022-10-31T01:48:22.937Z,5.79
2022-10-31T01:50:52.908Z,5.86
2022-10-31T01:53:24.370Z,5.89
2022-10-31T01:55:54.079Z,5.87
2022-10-31T01:58:23.833Z,6.12
2022-10-31T02:00:54.736Z,6.48
2022-10-31T02:03:23.451Z,6.42
2022-10-31T02:05:51.296Z,6.35
2022-10-31T02:08:28.900Z,6.18
2022-10-31T02:10:57.498Z,6.35
2022-10-31T02:15:56.628Z,6.16
2022-10-31T02:18:25.481Z,5.86
2022-10-31T02:20:58.047Z,5.89
2022-10-31T02:23:27.678Z,6.05
2022-10-31T02:25:54.143Z,6.00
2022-10-31T02:28:31.381Z,6.16
2022-10-31T02:31:03.877Z,6.08
2022-10-31T02:33:50.660Z,6.11
2022-10-31T02:36:33.212Z,6.24
2022-10-31T02:39:18.695Z,6.33
2022-10-31T02:41:51.220Z,6.47
2022-10-31T02:44:20.801Z,6.12
2022-10-31T02:47:13.794Z,6.17
2022-10-31T02:49:40.268Z,6.16
2022-10-31T02:52:21.029Z,6.45
2022-10-31T02:54:48.701Z,6.40
2022-10-31T02:57:17.868Z,6.62
2022-10-31T02:59:49.914Z,6.93
2022-10-31T03:02:16.662Z,6.56
2022-10-31T03:04:55.707Z,6.67
2022-10-31T03:07:54.706Z,6.90
2022-10-31T03:10:29.116Z,6.98
2022-10-31T03:13:07.725Z,7.51
2022-10-31T03:15:45.028Z,6.84
2022-10-31T03:18:21.366Z,7.21
2022-10-31T03:21:14.439Z,7.19
2022-10-31T03:23:44.751Z,6.93
2022-10-31T03:26:13.693Z,6.97
2022-10-31T03:28:47.344Z,7.60
2022-10-31T03:31:18.487Z,7.97
2022-10-31T03:33:47.310Z,8.12
2022-10-31T03:36:16.663Z,8.07
2022-10-31T03:38:45.382Z,7.99
2022-10-31T03:41:16.692Z,7.88
2022-10-31T03:43:46.962Z,8.38
2022-10-31T03:46:13.549Z,9.78
2022-10-31T03:48:40.467Z,9.29
2022-10-31T03:51:16.458Z,8.93
2022-10-31T03:53:55.623Z,8.87
2022-10-31T03:56:40.881Z,8.56
2022-10-31T03:59:18.266Z,8.67
2022-10-31T04:01:49.818Z,8.60
2022-10-31T04:04:17.656Z,8.75
2022-10-31T04:06:47.575Z,8.93
2022-10-31T04:09:15.035Z,9.53
2022-10-31T04:11:45.479Z,9.26
2022-10-31T04:14:12.398Z,10.14
2022-10-31T04:16:43.463Z,9.95
2022-10-31T04:19:10.503Z,9.95
2022-10-31T04:21:36.946Z,10.58
2022-10-31T04:24:03.578Z,10.68
2022-10-31T04:26:30.116Z,10.62
2022-10-31T04:28:56.682Z,11.69
2022-10-31T04:31:23.382Z,12.19
2022-10-31T04:33:49.914Z,12.03
2022-10-31T04:36:16.440Z,12.25
2022-10-31T04:38:43.092Z,12.92
2022-10-31T04:41:09.845Z,13.62
2022-10-31T04:43:36.626Z,13.12
2022-10-31T04:46:03.216Z,13.18
2022-10-31T04:48:29.829Z,13.15
2022-10-31T04:51:03.145Z,14.09
2022-10-31T04:53:30.190Z,13.64
2022-10-31T04:55:58.860Z,13.85
2022-10-31T04:58:25.328Z,14.34
2022-10-31T05:00:56.030Z,14.37
2022-10-31T05:03:22.756Z,14.91
2022-10-31T05:05:49.804Z,14.53
2022-10-31T05:08:16.454Z,15.37
2022-10-31T05:10:43.013Z,15.16
2022-10-31T05:13:09.645Z,15.36
2022-10-31T05:15:36.279Z,15.32
2022-10-31T05:18:03.563Z,15.35
2022-10-31T05:20:31.382Z,15.22
2022-10-31T05:22:58.726Z,15.13
2022-10-31T05:25:27.309Z,16.18
2022-10-31T05:27:55.445Z,15.54
2022-10-31T05:30:23.852Z,16.11
2022-10-31T05:32:51.556Z,16.10
2022-10-31T05:35:25.547Z,16.60
2022-10-31T05:37:52.218Z,16.36
2022-10-31T05:40:20.170Z,16.10
2022-10-31T05:42:47.314Z,17.22
2022-10-31T05:45:15.263Z,17.87
2022-10-31T05:47:41.957Z,17.23
2022-10-31T05:50:09.549Z,17.03
2022-10-31T05:52:36.244Z,17.08
2022-10-31T05:55:02.869Z,17.94
2022-10-31T05:57:30.513Z,17.45
2022-10-31T05:59:57.014Z,16.98
2022-10-31T06:02:23.571Z,18.09
2022-10-31T06:04:50.161Z,17.85
2022-10-31T06:07:17.030Z,18.24
2022-10-31T06:09:43.872Z,19.25
2022-10-31T06:12:10.575Z,18.75
2022-10-31T06:14:37.089Z,19.48
2022-10-31T06:17:03.721Z,19.20
2022-10-31T06:19:30.255Z,19.79
2022-10-31T06:21:56.871Z,19.70
2022-10-31T06:24:23.390Z,19.65
2022-10-31T06:26:50.075Z,19.36
2022-10-31T06:29:16.694Z,19.82
2022-10-31T06:31:43.297Z,19.44
2022-10-31T06:34:09.842Z,19.73
2022-10-31T06:36:36.481Z,19.35
2022-10-31T06:39:03.027Z,18.83
2022-10-31T06:41:29.475Z,19.09
2022-10-31T06:43:56.009Z,19.68
2022-10-31T06:46:22.524Z,19.60
2022-10-31T06:48:49.165Z,19.83
2022-10-31T06:51:15.762Z,19.95
2022-10-31T06:53:42.420Z,19.82
2022-10-31T06:56:09.176Z,19.59
2022-10-31T06:58:35.712Z,16.39
2022-10-31T07:01:02.408Z,20.72
2022-10-31T07:03:29.086Z,19.93
2022-10-31T07:05:56.635Z,19.23
2022-10-31T07:08:23.880Z,20.07
2022-10-31T07:10:54.771Z,19.32
2022-10-31T07:13:28.007Z,19.61
2022-10-31T07:15:55.895Z,20.03
2022-10-31T07:18:22.557Z,18.96
2022-10-31T07:20:49.415Z,18.11
2022-10-31T07:23:16.001Z,19.67
2022-10-31T07:25:42.932Z,18.75
2022-10-31T07:28:10.112Z,18.92
2022-10-31T07:30:36.858Z,19.84
2022-10-31T07:33:03.970Z,19.09
2022-10-31T07:35:31.445Z,17.76
2022-10-31T07:37:58.866Z,18.37
2022-10-31T07:40:25.789Z,18.05
2022-10-31T07:42:53.551Z,18.61
2022-10-31T07:45:21.264Z,18.38
2022-10-31T07:47:49.528Z,18.69
2022-10-31T07:50:17.608Z,18.80
2022-10-31T07:52:44.571Z,18.60
2022-10-31T07:55:11.629Z,18.69
2022-10-31T07:57:38.478Z,19.90
2022-10-31T08:00:09.529Z,18.71
2022-10-31T08:02:36.623Z,19.50
2022-10-31T08:05:03.588Z,18.78
2022-10-31T08:07:30.825Z,19.13
2022-10-31T08:09:57.589Z,19.08
2022-10-31T08:12:24.032Z,18.84
2022-10-31T08:14:51.303Z,18.66
2022-10-31T08:17:17.814Z,18.60
2022-10-31T08:19:44.420Z,19.82
2022-10-31T08:22:10.947Z,19.57
2022-10-31T08:27:09.039Z,20.11
2022-10-31T08:29:35.568Z,20.40
2022-10-31T08:32:02.113Z,20.90
2022-10-31T08:34:28.658Z,21.37
2022-10-31T08:36:55.323Z,22.12
2022-10-31T08:39:21.848Z,21.65
2022-10-31T08:41:48.376Z,20.95
2022-10-31T08:44:16.549Z,21.71
2022-10-31T08:46:43.044Z,21.74
2022-10-31T08:49:09.631Z,22.04
2022-10-31T08:51:36.130Z,21.44
2022-10-31T08:54:02.660Z,21.93
2022-10-31T08:56:29.180Z,22.01
2022-10-31T08:58:55.755Z,19.47
2022-10-31T09:01:22.422Z,12.69
2022-10-31T09:03:49.063Z,11.93
2022-10-31T09:06:15.856Z,14.03
2022-10-31T09:08:42.509Z,13.84
2022-10-31T09:11:09.065Z,14.11
2022-10-31T09:13:40.994Z,12.57
2022-10-31T09:16:08.064Z,13.01
2022-10-31T09:18:34.977Z,13.62
2022-10-31T09:21:01.974Z,13.47
2022-10-31T09:23:29.169Z,14.15
2022-10-31T09:25:56.241Z,13.58
2022-10-31T09:28:24.086Z,13.68
2022-10-31T09:30:52.145Z,13.15
2022-10-31T09:33:18.926Z,12.70
2022-10-31T09:35:45.477Z,13.67
2022-10-31T09:38:15.547Z,16.55
2022-10-31T09:40:47.195Z,17.69
2022-10-31T09:43:13.684Z,18.27
2022-10-31T09:45:46.411Z,18.29
2022-10-31T09:48:16.013Z,17.90
2022-10-31T09:50:51.061Z,18.13
2022-10-31T09:53:26.134Z,18.05
2022-10-31T09:55:54.906Z,19.01
2022-10-31T09:58:24.321Z,19.14
2022-10-31T10:00:50.928Z,19.46
2022-10-31T10:03:29.064Z,20.58
2022-10-31T10:06:06.110Z,20.57
2022-10-31T10:08:35.467Z,20.52
2022-10-31T10:11:05.023Z,19.60
2022-10-31T10:13:43.427Z,19.32
2022-10-31T10:16:36.265Z,19.81
2022-10-31T10:19:08.541Z,19.24
2022-10-31T10:21:45.621Z,19.63
2022-10-31T10:24:20.981Z,19.76
2022-10-31T10:26:55.207Z,19.11
2022-10-31T10:29:21.694Z,19.99
2022-10-31T10:31:51.513Z,18.77
2022-10-31T10:34:29.547Z,20.04
2022-10-31T10:37:01.185Z,19.65
2022-10-31T10:39:42.968Z,20.66
2022-10-31T10:42:32.978Z,20.40
2022-10-31T10:45:19.496Z,21.56
2022-10-31T10:47:54.005Z,22.30
2022-10-31T10:50:20.531Z,21.95
2022-10-31T10:52:51.099Z,22.27
2022-10-31T10:55:33.170Z,21.11
2022-10-31T10:58:02.514Z,20.42
2022-10-31T11:00:37.345Z,20.52
2022-10-31T11:03:05.960Z,20.43
2022-10-31T11:05:38.737Z,20.00
2022-10-31T11:08:06.460Z,18.45
2022-10-31T11:10:34.368Z,17.25
2022-10-31T11:13:04.379Z,16.93
2022-10-31T11:15:33.481Z,16.27
2022-10-31T11:18:00.442Z,16.05
2022-10-31T11:20:31.370Z,15.78
2022-10-31T11:23:19.049Z,15.61
2022-10-31T11:25:50.348Z,14.94
2022-10-31T11:28:16.869Z,14.89
2022-10-31T11:30:47.014Z,15.07
2022-10-31T11:33:32.571Z,14.82
2022-10-31T11:36:00.898Z,15.17
2022-10-31T11:38:34.852Z,14.50
2022-10-31T11:41:12.983Z,14.16
2022-10-31T11:43:46.361Z,15.84
2022-10-31T11:46:18.727Z,14.34
2022-10-31T11:48:49.069Z,13.66
2022-10-31T11:51:21.870Z,13.45
2022-10-31T11:53:56.734Z,13.30
2022-10-31T11:56:27.416Z,12.77
2022-10-31T11:59:17.273Z,12.15
2022-10-31T12:01:48.119Z,12.69
2022-10-31T12:04:14.946Z,12.18
2022-10-31T12:06:43.359Z,11.88
2022-10-31T12:09:16.210Z,11.99
2022-10-31T12:12:02.978Z,12.74
2022-10-31T12:14:38.797Z,12.79
2022-10-31T12:17:05.303Z,12.59
2022-10-31T12:19:50.130Z,13.57
2022-10-31T12:22:46.826Z,14.48
2022-10-31T12:25:22.664Z,15.23
2022-10-31T12:28:06.213Z,15.62
2022-10-31T12:30:49.175Z,14.69
2022-10-31T12:33:18.732Z,16.51
2022-10-31T12:35:59.649Z,19.30
2022-10-31T12:38:26.150Z,19.12
2022-10-31T12:41:04.127Z,19.46
2022-10-31T12:43:49.616Z,19.37
2022-10-31T12:46:40.127Z,19.75
2022-10-31T12:49:15.859Z,20.81
2022-10-31T12:52:00.950Z,21.08
2022-10-31T12:54:45.479Z,21.00
2022-10-31T12:57:24.120Z,21.95
2022-10-31T13:00:06.133Z,20.76
2022-10-31T13:02:51.064Z,20.79
2022-10-31T13:05:17.810Z,21.75
2022-10-31T13:07:50.115Z,21.45
2022-10-31T13:10:55.548Z,22.67
2022-10-31T13:13:30.859Z,21.80
2022-10-31T13:16:04.383Z,22.09
2022-10-31T13:18:44.716Z,21.79
2022-10-31T13:21:17.085Z,22.23
2022-10-31T13:23:50.907Z,21.84
2022-10-31T13:26:23.416Z,22.43
2022-10-31T13:28:56.351Z,21.99
2022-10-31T13:31:23.210Z,22.18
2022-10-31T13:33:54.592Z,22.09
2022-10-31T13:36:24.167Z,22.37
2022-10-31T13:38:55.190Z,22.28
2022-10-31T13:41:34.623Z,22.40
2022-10-31T13:44:11.030Z,22.61
2022-10-31T13:46:39.805Z,22.74
2022-10-31T13:49:25.167Z,23.25
2022-10-31T13:51:53.979Z,22.74
2022-10-31T13:54:25.014Z,22.82
2022-10-31T13:56:53.060Z,21.85
2022-10-31T13:59:22.519Z,23.33
2022-10-31T14:01:52.286Z,23.17
2022-10-31T14:04:25.231Z,24.54
2022-10-31T14:06:58.367Z,23.67
2022-10-31T14:09:24.976Z,23.91
2022-10-31T14:11:52.332Z,24.42
2022-10-31T14:14:20.811Z,25.36
2022-10-31T14:16:55.723Z,26.65
2022-10-31T14:19:23.261Z,25.95
2022-10-31T14:21:51.178Z,27.22
2022-10-31T14:24:23.802Z,25.75
2022-10-31T14:26:55.503Z,26.59
2022-10-31T14:29:25.689Z,27.57
2022-10-31T14:31:52.399Z,28.09
2022-10-31T14:34:25.256Z,28.13
2022-10-31T14:36:51.775Z,26.33
2022-10-31T14:39:34.087Z,27.05
2022-10-31T14:42:29.811Z,26.91
2022-10-31T14:44:59.028Z,27.04
2022-10-31T14:47:25.635Z,27.67
2022-10-31T14:50:07.738Z,27.63
2022-10-31T14:52:37.555Z,28.61
2022-10-31T14:55:08.378Z,26.08
2022-10-31T14:57:38.499Z,25.84
2022-10-31T15:00:07.420Z,26.25
2022-10-31T15:02:37.817Z,26.32
2022-10-31T15:05:12.241Z,26.20
2022-10-31T15:07:49.440Z,25.72
2022-10-31T15:10:28.152Z,26.57
2022-10-31T15:12:54.666Z,26.68
2022-10-31T15:15:25.746Z,26.18
2022-10-31T15:17:55.359Z,26.67
2022-10-31T15:20:25.265Z,26.28
2022-10-31T15:22:52.088Z,25.94
2022-10-31T15:25:20.483Z,25.47
2022-10-31T15:27:48.761Z,25.30
2022-10-31T15:30:28.696Z,24.35
2022-10-31T15:32:58.798Z,24.49
2022-10-31T15:35:30.371Z,23.87
2022-10-31T15:38:02.739Z,24.12
2022-10-31T15:40:29.609Z,22.92
2022-10-31T15:43:02.552Z,23.17
2022-10-31T15:45:31.314Z,24.07
2022-10-31T15:48:03.633Z,23.90
2022-10-31T15:50:33.327Z,22.60
2022-10-31T15:53:01.846Z,22.74
2022-10-31T15:55:30.670Z,21.59
2022-10-31T15:57:59.801Z,22.60
2022-10-31T16:00:31.033Z,22.97
2022-10-31T16:03:08.660Z,21.32
2022-10-31T16:05:37.531Z,23.28
2022-10-31T16:08:04.119Z,23.22
2022-10-31T16:10:33.743Z,23.58
2022-10-31T16:13:03.157Z,23.35
2022-10-31T16:15:30.855Z,22.98
2022-10-31T16:18:01.475Z,22.73
2022-10-31T16:20:30.036Z,22.48
2022-10-31T16:22:58.876Z,23.32
2022-10-31T16:25:28.330Z,22.31
2022-10-31T16:27:57.786Z,22.99
2022-10-31T16:30:30.607Z,20.40
2022-10-31T16:33:00.137Z,23.22
2022-10-31T16:35:26.875Z,22.42
2022-10-31T16:37:54.012Z,23.53
2022-10-31T16:40:21.882Z,23.14
2022-10-31T16:42:51.910Z,22.96
2022-10-31T16:45:20.581Z,23.68
2022-10-31T16:47:47.875Z,21.31
2022-10-31T16:50:16.007Z,23.80
2022-10-31T16:52:53.747Z,23.47
2022-10-31T16:55:27.616Z,23.06
2022-10-31T16:57:57.255Z,22.92
2022-10-31T17:00:24.811Z,24.39
2022-10-31T17:02:52.728Z,25.32
2022-10-31T17:05:21.043Z,25.81
2022-10-31T17:07:48.258Z,24.45
2022-10-31T17:10:16.116Z,24.22
2022-10-31T17:12:45.038Z,25.92
2022-10-31T17:15:31.832Z,35.55
2022-10-31T17:17:58.719Z,29.54
2022-10-31T17:20:27.320Z,26.04
2022-10-31T17:22:54.449Z,24.16
2022-10-31T17:25:22.887Z,24.03
2022-10-31T17:27:49.819Z,23.04
2022-10-31T17:30:18.605Z,24.08
2022-10-31T17:32:46.269Z,24.82
2022-10-31T17:35:14.134Z,23.49
2022-10-31T17:37:42.940Z,25.32
2022-10-31T17:40:10.694Z,25.86
2022-10-31T17:42:37.366Z,25.72
2022-10-31T17:45:04.565Z,25.27
2022-10-31T17:47:31.106Z,29.44
2022-10-31T17:49:57.724Z,30.22
2022-10-31T17:52:24.340Z,28.64
2022-10-31T17:54:50.817Z,26.81
2022-10-31T17:57:17.452Z,25.13
2022-10-31T17:59:44.017Z,25.38
2022-10-31T18:02:11.186Z,25.25
2022-10-31T18:04:38.731Z,25.41
2022-10-31T18:07:05.890Z,24.50
2022-10-31T18:09:32.422Z,25.99
2022-10-31T18:11:58.939Z,25.69
2022-10-31T18:14:25.553Z,25.39
2022-10-31T18:16:52.219Z,25.92
2022-10-31T18:19:18.821Z,26.35
2022-10-31T18:21:45.993Z,26.58
2022-10-31T18:24:12.712Z,26.12
2022-10-31T18:26:39.760Z,24.92
2022-10-31T18:29:06.860Z,25.62
2022-10-31T18:31:33.806Z,25.72
2022-10-31T18:34:00.409Z,25.51
2022-10-31T18:36:27.281Z,29.03
2022-10-31T18:38:54.011Z,26.48
2022-10-31T18:41:20.811Z,26.48
2022-10-31T18:43:47.375Z,25.10
2022-10-31T18:46:15.237Z,26.10
2022-10-31T18:48:42.971Z,26.57
2022-10-31T18:51:10.846Z,27.11
2022-10-31T18:53:37.403Z,26.28
2022-10-31T18:56:08.136Z,26.41
2022-10-31T18:58:35.073Z,26.28
2022-10-31T19:01:06.310Z,25.73
2022-10-31T19:03:33.479Z,26.14
2022-10-31T19:06:00.114Z,26.03
2022-10-31T19:11:09.335Z,25.03
2022-10-31T19:13:36.520Z,25.10
2022-10-31T19:16:14.315Z,24.81
2022-10-31T19:18:42.248Z,24.83
2022-10-31T19:21:10.761Z,24.63
2022-10-31T19:23:37.899Z,25.22
2022-10-31T19:26:04.945Z,24.70
2022-10-31T19:28:35.691Z,24.17
2022-10-31T19:31:02.623Z,24.25
2022-10-31T19:33:34.928Z,23.88
2022-10-31T19:36:08.149Z,23.94
2022-10-31T19:38:34.903Z,22.95
2022-10-31T19:41:08.753Z,23.59
2022-10-31T19:43:35.450Z,22.33
2022-10-31T19:46:03.684Z,22.48
2022-10-31T19:48:31.014Z,23.09
2022-10-31T19:51:05.701Z,23.03
2022-10-31T19:53:32.853Z,21.87
2022-10-31T19:55:59.708Z,21.93
2022-10-31T19:58:26.948Z,20.64
2022-10-31T20:00:53.777Z,19.72
2022-10-31T20:03:22.571Z,19.82
2022-10-31T20:05:50.667Z,19.43
2022-10-31T20:08:19.527Z,18.48
2022-10-31T20:10:56.626Z,18.19
2022-10-31T20:13:24.625Z,17.64
2022-10-31T20:15:52.044Z,17.62
2022-10-31T20:18:19.078Z,16.64
2022-10-31T20:20:45.748Z,15.91
2022-10-31T20:23:12.370Z,15.46
2022-10-31T20:25:46.184Z,15.45
2022-10-31T20:28:12.768Z,14.52
2022-10-31T20:30:39.336Z,14.38
2022-10-31T20:33:06.187Z,14.15
2022-10-31T20:35:36.093Z,13.46
2022-10-31T20:38:04.868Z,13.36
2022-10-31T20:40:32.153Z,13.79
2022-10-31T20:42:58.744Z,13.75
2022-10-31T20:45:25.305Z,12.75
2022-10-31T20:47:51.835Z,13.12
2022-10-31T20:50:18.466Z,12.61
2022-10-31T20:52:45.321Z,12.48
2022-10-31T20:55:12.012Z,12.55
2022-10-31T20:57:39.000Z,12.62
2022-10-31T21:00:05.951Z,12.61
2022-10-31T21:02:32.557Z,12.37
2022-10-31T21:04:59.063Z,12.37
2022-10-31T21:07:25.670Z,12.03
2022-10-31T21:09:52.184Z,12.13
2022-10-31T21:12:18.733Z,12.10
2022-10-31T21:14:45.263Z,11.35
2022-10-31T21:17:11.950Z,11.51
2022-10-31T21:19:38.690Z,11.65
2022-10-31T21:22:05.277Z,11.27
2022-10-31T21:24:31.835Z,10.94
2022-10-31T21:26:58.754Z,11.09
2022-10-31T21:29:25.513Z,10.81
2022-10-31T21:31:52.020Z,10.54
2022-10-31T21:34:19.795Z,10.54
2022-10-31T21:36:46.339Z,10.13
2022-10-31T21:39:13.240Z,9.99
2022-10-31T21:41:39.859Z,10.38
2022-10-31T21:44:06.449Z,9.77
2022-10-31T21:46:33.916Z,9.76
2022-10-31T21:49:02.100Z,9.48
2022-10-31T21:51:30.582Z,9.74
2022-10-31T21:54:15.943Z,9.55
2022-10-31T21:56:42.970Z,9.56
2022-10-31T21:59:09.953Z,10.00
2022-10-31T22:01:37.030Z,9.43
2022-10-31T22:04:04.006Z,9.30
2022-10-31T22:06:30.986Z,9.11
2022-10-31T22:09:01.635Z,9.08
2022-10-31T22:11:28.814Z,9.35
2022-10-31T22:13:56.211Z,9.44
2022-10-31T22:16:24.002Z,9.02
2022-10-31T22:18:54.833Z,9.03
2022-10-31T22:21:25.844Z,8.85
2022-10-31T22:23:53.864Z,9.55
2022-10-31T22:26:20.638Z,9.19
2022-10-31T22:28:49.115Z,9.36
2022-10-31T22:31:17.820Z,8.71
2022-10-31T22:33:45.218Z,8.67
2022-10-31T22:36:13.245Z,9.15
2022-10-31T22:38:40.520Z,8.87
2022-10-31T22:41:11.618Z,8.91
2022-10-31T22:43:38.250Z,8.64
2022-10-31T22:46:06.337Z,8.68
2022-10-31T22:48:36.167Z,8.86
2022-10-31T22:51:11.849Z,8.61
2022-10-31T22:53:39.091Z,9.46
2022-10-31T22:56:07.227Z,8.93
2022-10-31T22:58:34.774Z,8.80
2022-10-31T23:01:06.527Z,8.96
2022-10-31T23:03:33.102Z,9.15
2022-10-31T23:06:02.263Z,8.89
2022-10-31T23:08:30.036Z,9.10
2022-10-31T23:10:56.780Z,9.25
2022-10-31T23:13:41.935Z,8.91
2022-10-31T23:16:09.629Z,9.34
2022-10-31T23:18:49.525Z,8.76
2022-10-31T23:21:36.875Z,8.66
2022-10-31T23:24:03.532Z,9.53
2022-10-31T23:26:48.525Z,9.13
2022-10-31T23:29:15.038Z,9.14
2022-10-31T23:31:41.573Z,9.04
2022-10-31T23:34:08.430Z,9.28
2022-10-31T23:36:35.117Z,8.92
2022-10-31T23:39:01.684Z,9.76
2022-10-31T23:41:28.195Z,9.34
2022-10-31T23:43:55.084Z,9.34
2022-10-31T23:46:21.672Z,9.28
2022-10-31T23:48:49.549Z,9.51
2022-10-31T23:51:16.226Z,9.25
2022-10-31T23:53:46.218Z,9.12
2022-10-31T23:56:13.046Z,9.30
2022-10-31T23:58:39.769Z,8.96
